createdAt,value
2023-09-05T00:06:18.297Z,71.25
2023-09-05T00:16:20.350Z,63.65
2023-09-05T00:26:23.703Z,63.42
2023-09-05T00:36:25.904Z,71.32
2023-09-05T00:46:29.659Z,74.88
2023-09-05T00:56:32.161Z,72.95
2023-09-05T01:06:48.044Z,70.00
2023-09-05T01:16:50.057Z,69.32
2023-09-05T01:26:54.483Z,74.22
2023-09-05T01:36:56.488Z,70.35
2023-09-05T01:46:59.842Z,70.25
2023-09-05T01:57:01.834Z,67.78
2023-09-05T02:07:05.305Z,73.35
2023-09-05T02:17:08.471Z,68.47
2023-09-05T02:27:12.127Z,70.25
2023-09-05T02:37:14.094Z,72.20
2023-09-05T02:47:17.424Z,84.35
2023-09-05T02:57:19.419Z,82.57
2023-09-05T03:07:23.302Z,177.95
2023-09-05T03:17:25.366Z,193.20
2023-09-05T03:27:28.732Z,223.40
2023-09-05T03:37:30.727Z,105.32
2023-09-05T03:47:37.299Z,83.40
2023-09-05T03:57:43.355Z,71.00
2023-09-05T04:07:46.701Z,92.13
2023-09-05T04:17:49.020Z,84.95
2023-09-05T04:27:53.100Z,75.00
2023-09-05T04:37:55.112Z,73.30
2023-09-05T04:47:58.804Z,63.25
2023-09-05T04:58:00.849Z,70.20
2023-09-05T05:08:04.595Z,73.75
2023-09-05T05:18:09.457Z,69.95
2023-09-05T05:28:13.002Z,79.97
2023-09-05T05:38:14.940Z,80.82
2023-09-05T05:48:18.320Z,88.28
2023-09-05T05:58:20.354Z,69.85
2023-09-05T06:08:23.973Z,72.97
2023-09-05T06:18:27.185Z,83.80
2023-09-05T06:28:31.877Z,77.07
2023-09-05T06:38:33.861Z,70.65
2023-09-05T06:48:39.665Z,74.30
2023-09-05T06:58:41.752Z,68.47
2023-09-05T07:08:45.375Z,56.45
2023-09-05T07:18:47.345Z,55.17
2023-09-05T07:28:50.742Z,59.72
2023-09-05T07:38:52.688Z,48.30
2023-09-05T07:48:56.226Z,54.50
2023-09-05T07:58:58.287Z,48.80
2023-09-05T08:09:01.624Z,45.42
2023-09-05T08:19:03.625Z,47.35
2023-09-05T08:29:06.943Z,45.45
2023-09-05T08:39:08.964Z,43.63
2023-09-05T08:49:12.430Z,32.38
2023-09-05T08:59:15.159Z,27.35
2023-09-05T09:09:35.433Z,22.33
2023-09-05T09:19:39.563Z,18.73
2023-09-05T09:29:43.345Z,20.23
2023-09-05T09:39:49.611Z,10.55
2023-09-05T09:49:53.094Z,13.65
2023-09-05T10:00:01.388Z,8.57
2023-09-05T10:10:06.388Z,12.55
2023-09-05T10:20:10.695Z,15.70
2023-09-05T10:30:14.120Z,11.73
2023-09-05T10:40:16.165Z,7.10
2023-09-05T10:50:19.705Z,9.07
2023-09-05T11:00:30.787Z,10.20
2023-09-05T11:10:36.086Z,6.88
2023-09-05T11:20:38.815Z,10.10
2023-09-05T11:30:44.555Z,6.70
2023-09-05T11:50:55.619Z,5.85
2023-09-05T12:00:57.684Z,9.63
2023-09-05T12:11:05.295Z,6.65
2023-09-05T12:21:07.273Z,6.25
2023-09-05T12:31:12.388Z,11.40
2023-09-05T12:41:15.704Z,8.15
2023-09-05T12:51:19.267Z,8.88
2023-09-05T13:01:22.290Z,5.82
2023-09-05T13:11:25.791Z,8.35
2023-09-05T13:21:27.796Z,6.47
2023-09-05T13:31:31.149Z,6.03
2023-09-05T13:41:33.173Z,3.80
2023-09-05T13:51:36.513Z,7.72
2023-09-05T14:01:38.505Z,6.40
2023-09-05T14:11:44.456Z,7.10
2023-09-05T14:21:46.935Z,5.20
2023-09-05T14:31:50.342Z,4.90
2023-09-05T14:41:53.383Z,5.80
2023-09-05T14:51:56.708Z,5.00
2023-09-05T15:01:58.667Z,8.07
2023-09-05T15:12:02.140Z,6.35
2023-09-05T15:22:05.308Z,5.55
2023-09-05T15:32:08.849Z,8.65
2023-09-05T15:42:10.845Z,7.05
2023-09-05T15:52:14.352Z,8.60
2023-09-05T16:02:20.197Z,3.75
2023-09-05T16:12:24.416Z,4.07
2023-09-05T16:22:26.571Z,4.47
2023-09-05T16:32:29.916Z,5.45
2023-09-05T16:42:31.948Z,8.93
2023-09-05T16:52:35.333Z,4.78
2023-09-05T17:02:37.351Z,8.32
2023-09-05T17:12:40.885Z,9.98
2023-09-05T17:22:44.746Z,5.57
2023-09-05T17:32:48.711Z,6.10
2023-09-05T17:42:50.718Z,6.53
2023-09-05T18:04:00.368Z,9.45
2023-09-05T18:25:03.903Z,10.45
2023-09-05T18:35:06.340Z,9.52
2023-09-05T18:45:11.047Z,8.30
2023-09-05T18:55:13.616Z,6.95
2023-09-05T19:05:26.460Z,5.68
2023-09-05T19:15:28.518Z,7.28
2023-09-05T19:25:36.398Z,12.52
2023-09-05T19:35:38.391Z,11.43
2023-09-05T19:45:43.848Z,14.00
2023-09-05T19:55:45.857Z,11.15
2023-09-05T20:05:49.269Z,15.90
2023-09-05T20:16:05.812Z,12.05
2023-09-05T20:26:09.179Z,16.38
2023-09-05T20:36:11.179Z,13.85
2023-09-05T20:57:13.144Z,18.20
2023-09-05T21:07:15.148Z,20.70
2023-09-05T21:17:18.474Z,17.75
2023-09-05T21:27:20.668Z,17.80
2023-09-05T21:37:24.557Z,19.30
2023-09-05T21:47:26.627Z,20.02
2023-09-05T21:57:30.029Z,23.30
2023-09-05T22:07:32.034Z,12.20
2023-09-05T22:17:35.551Z,9.65
2023-09-05T22:27:37.679Z,14.00
2023-09-05T22:37:41.605Z,8.43
2023-09-05T22:47:43.774Z,9.48
2023-09-05T22:57:47.370Z,14.15
2023-09-05T23:07:49.422Z,10.48
2023-09-05T23:17:54.014Z,9.55
2023-09-05T23:27:56.205Z,9.23
2023-09-05T23:37:59.621Z,9.45
2023-09-05T23:48:01.702Z,9.75
2023-09-05T23:58:05.335Z,13.55
